createdAt,value
2019-05-05T00:00:14.385Z,5.10
2019-05-05T00:05:35.334Z,5.10
2019-05-05T00:10:59.494Z,5.00
2019-05-05T00:16:27.654Z,5.00
2019-05-05T00:21:34.327Z,4.90
2019-05-05T00:26:40.883Z,4.70
2019-05-05T00:31:47.139Z,4.70
2019-05-05T00:36:55.210Z,4.80
2019-05-05T00:42:01.074Z,4.60
2019-05-05T00:47:25.160Z,4.60
2019-05-05T00:52:31.516Z,4.60
2019-05-05T00:57:37.805Z,4.50
2019-05-05T01:02:48.052Z,4.60
2019-05-05T01:07:54.756Z,4.50
2019-05-05T01:13:01.048Z,4.50
2019-05-05T01:18:07.430Z,4.10
2019-05-05T01:23:15.022Z,4.30
2019-05-05T01:28:21.555Z,4.40
2019-05-05T01:33:49.729Z,4.40
2019-05-05T01:39:10.218Z,4.40
2019-05-05T01:44:16.464Z,4.30
2019-05-05T01:49:22.506Z,4.20
2019-05-05T01:54:28.531Z,4.10
2019-05-05T01:59:35.507Z,4.20
2019-05-05T02:04:41.796Z,4.10
2019-05-05T02:09:47.822Z,4.20
2019-05-05T02:14:55.157Z,4.10
2019-05-05T02:20:01.549Z,4.10
2019-05-05T02:25:07.742Z,4.00
2019-05-05T02:30:22.627Z,4.10
2019-05-05T02:35:28.670Z,4.10
2019-05-05T02:40:35.204Z,4.10
2019-05-05T02:46:06.667Z,4.10
2019-05-05T02:51:15.188Z,4.00
2019-05-05T02:56:27.227Z,4.00
2019-05-05T03:01:53.910Z,3.80
2019-05-05T03:07:02.762Z,3.70
2019-05-05T03:12:11.533Z,3.70
2019-05-05T03:17:17.847Z,3.90
2019-05-05T03:22:25.443Z,3.70
2019-05-05T03:27:34.015Z,3.70
2019-05-05T03:32:41.104Z,3.70
2019-05-05T03:37:47.710Z,3.80
2019-05-05T03:42:59.118Z,3.80
2019-05-05T03:48:05.459Z,3.70
2019-05-05T03:53:13.988Z,3.60
2019-05-05T03:58:20.831Z,3.70
2019-05-05T04:03:28.259Z,3.70
2019-05-05T04:08:34.451Z,3.80
2019-05-05T04:13:43.299Z,3.80
2019-05-05T04:18:54.342Z,4.00
2019-05-05T04:24:01.416Z,4.10
2019-05-05T04:29:07.534Z,4.20
2019-05-05T04:34:13.758Z,4.30
2019-05-05T04:39:19.947Z,4.40
2019-05-05T04:44:26.059Z,4.60
2019-05-05T04:49:53.816Z,4.70
2019-05-05T04:55:00.130Z,4.80
2019-05-05T05:00:06.935Z,4.80
2019-05-05T05:05:22.045Z,4.90
2019-05-05T05:10:28.211Z,4.90
2019-05-05T05:15:34.668Z,5.10
2019-05-05T05:20:44.296Z,5.00
2019-05-05T05:25:50.329Z,5.10
2019-05-05T05:30:56.568Z,5.20
2019-05-05T05:36:04.009Z,5.40
2019-05-05T05:41:15.547Z,5.40
2019-05-05T05:46:43.864Z,5.70
2019-05-05T05:51:50.368Z,6.00
2019-05-05T05:56:56.617Z,6.00
2019-05-05T06:02:09.783Z,6.00
2019-05-05T06:07:11.060Z,6.00
2019-05-05T06:12:17.440Z,6.10
2019-05-05T06:17:23.828Z,6.20
2019-05-05T06:22:31.583Z,6.30
2019-05-05T06:27:37.928Z,6.40
2019-05-05T06:32:45.740Z,6.50
2019-05-05T06:37:54.930Z,7.20
2019-05-05T06:43:32.306Z,7.40
2019-05-05T06:48:39.082Z,7.50
2019-05-05T06:53:46.361Z,7.50
2019-05-05T06:58:54.060Z,7.70
2019-05-05T07:04:00.505Z,8.00
2019-05-05T07:09:07.024Z,8.00
2019-05-05T07:14:14.267Z,7.90
2019-05-05T07:19:20.712Z,8.10
2019-05-05T07:24:27.057Z,8.30
2019-05-05T07:29:34.245Z,8.40
2019-05-05T07:34:58.751Z,8.60
2019-05-05T07:40:06.836Z,8.70
2019-05-05T07:45:22.174Z,8.80
2019-05-05T07:50:29.469Z,8.90
2019-05-05T07:55:29.055Z,8.80
2019-05-05T08:00:35.324Z,8.90
2019-05-05T08:05:41.654Z,9.00
2019-05-05T08:10:47.828Z,9.20
2019-05-05T08:15:59.985Z,9.30
2019-05-05T08:21:05.168Z,9.20
2019-05-05T08:26:21.110Z,10.00
2019-05-05T08:31:46.471Z,10.70
2019-05-05T08:36:53.842Z,11.40
2019-05-05T08:42:00.380Z,11.60
2019-05-05T08:47:06.642Z,11.20
2019-05-05T08:52:14.480Z,11.30
2019-05-05T08:57:20.711Z,11.00
2019-05-05T09:02:26.967Z,10.50
2019-05-05T09:07:33.630Z,10.00
2019-05-05T09:12:39.881Z,10.30
2019-05-05T09:17:46.104Z,11.00
2019-05-05T09:22:53.532Z,11.00
2019-05-05T09:28:06.115Z,11.90
2019-05-05T09:33:14.252Z,12.50
2019-05-05T09:38:21.449Z,11.60
2019-05-05T09:43:28.496Z,11.20
2019-05-05T09:48:34.811Z,11.00
2019-05-05T09:53:42.180Z,10.20
2019-05-05T09:58:48.514Z,9.10
2019-05-05T10:04:08.426Z,9.10
2019-05-05T10:09:14.624Z,9.20
2019-05-05T10:14:20.929Z,9.30
2019-05-05T10:19:28.974Z,9.70
2019-05-05T10:24:40.886Z,11.00
2019-05-05T10:29:47.269Z,11.70
2019-05-05T10:35:04.447Z,11.60
2019-05-05T10:40:12.874Z,11.30
2019-05-05T10:45:20.993Z,11.30
2019-05-05T10:50:27.424Z,11.10
2019-05-05T10:55:34.675Z,11.30
2019-05-05T11:00:44.542Z,11.70
2019-05-05T11:05:50.879Z,11.90
2019-05-05T11:10:57.281Z,12.10
2019-05-05T11:16:04.059Z,12.60
2019-05-05T11:21:10.378Z,13.20
2019-05-05T11:26:16.567Z,13.60
2019-05-05T11:31:23.908Z,13.90
2019-05-05T11:36:54.390Z,13.50
2019-05-05T11:42:00.667Z,13.10
2019-05-05T11:47:07.252Z,11.90
2019-05-05T11:52:13.528Z,10.60
2019-05-05T11:57:19.984Z,10.30
2019-05-05T12:02:26.456Z,10.60
2019-05-05T12:07:34.225Z,11.10
2019-05-05T12:12:40.678Z,11.70
2019-05-05T12:17:46.964Z,12.30
2019-05-05T12:22:53.880Z,12.80
2019-05-05T12:28:09.779Z,12.80
2019-05-05T12:33:16.022Z,12.60
2019-05-05T12:38:23.997Z,12.10
2019-05-05T12:43:30.076Z,11.70
2019-05-05T12:48:37.400Z,11.80
2019-05-05T12:53:43.772Z,12.10
2019-05-05T12:58:49.960Z,12.00
2019-05-05T13:03:56.225Z,11.70
2019-05-05T13:09:02.431Z,11.70
2019-05-05T13:14:10.239Z,11.80
2019-05-05T13:19:34.658Z,12.10
2019-05-05T13:24:50.345Z,12.60
2019-05-05T13:29:56.602Z,13.00
2019-05-05T13:35:04.066Z,13.10
2019-05-05T13:40:10.794Z,12.90
2019-05-05T13:45:38.510Z,12.80
2019-05-05T13:50:47.856Z,13.20
2019-05-05T13:56:08.024Z,13.70
2019-05-05T14:01:03.705Z,13.80
2019-05-05T14:06:10.238Z,13.30
2019-05-05T14:11:17.642Z,13.60
2019-05-05T14:16:23.961Z,14.10
2019-05-05T14:21:30.229Z,14.40
2019-05-05T14:26:36.469Z,14.60
2019-05-05T14:31:44.414Z,14.70
2019-05-05T14:37:11.054Z,14.70
2019-05-05T14:42:16.401Z,14.20
2019-05-05T14:47:24.455Z,13.80
2019-05-05T14:52:32.046Z,13.20
2019-05-05T14:57:38.286Z,11.80
2019-05-05T15:02:44.501Z,11.70
2019-05-05T15:07:58.576Z,11.50
2019-05-05T15:13:08.551Z,11.20
2019-05-05T15:18:14.955Z,11.30
2019-05-05T15:23:21.174Z,11.50
2019-05-05T15:28:27.420Z,11.60
2019-05-05T15:33:33.740Z,12.00
2019-05-05T15:38:39.975Z,12.30
2019-05-05T15:43:46.151Z,12.60
2019-05-05T15:48:54.425Z,12.70
2019-05-05T15:54:00.058Z,12.50
2019-05-05T15:59:06.280Z,12.50
2019-05-05T16:04:14.110Z,12.80
2019-05-05T16:09:20.364Z,13.20
2019-05-05T16:14:26.762Z,13.30
2019-05-05T16:19:55.109Z,13.40
2019-05-05T16:25:11.115Z,13.30
2019-05-05T16:30:18.139Z,13.20
2019-05-05T16:35:24.867Z,12.90
2019-05-05T16:40:31.110Z,12.60
2019-05-05T16:45:37.419Z,12.50
2019-05-05T16:50:44.392Z,12.30
2019-05-05T16:55:54.390Z,12.20
2019-05-05T17:01:03.823Z,12.10
2019-05-05T17:06:10.913Z,11.90
2019-05-05T17:11:18.340Z,12.00
2019-05-05T17:16:38.271Z,11.80
2019-05-05T17:22:04.029Z,11.70
2019-05-05T17:27:10.372Z,11.70
2019-05-05T17:32:16.574Z,11.20
2019-05-05T17:37:23.913Z,10.80
2019-05-05T17:42:43.930Z,10.70
2019-05-05T17:48:21.399Z,10.90
2019-05-05T17:53:45.097Z,11.10
2019-05-05T17:58:51.330Z,11.10
2019-05-05T18:03:57.633Z,11.20
2019-05-05T18:09:14.054Z,11.10
2019-05-05T18:14:24.097Z,11.00
2019-05-05T18:19:30.588Z,10.70
2019-05-05T18:24:36.824Z,10.60
2019-05-05T18:29:43.665Z,10.40
2019-05-05T18:34:50.436Z,10.20
2019-05-05T18:39:56.707Z,10.10
2019-05-05T18:45:07.550Z,10.00
2019-05-05T18:50:14.066Z,9.90
2019-05-05T18:55:20.444Z,9.90
2019-05-05T19:00:44.345Z,9.80
2019-05-05T19:06:06.885Z,9.80
2019-05-05T19:11:13.204Z,9.70
2019-05-05T19:16:19.362Z,9.60
2019-05-05T19:21:30.510Z,9.50
2019-05-05T19:26:36.871Z,9.50
2019-05-05T19:31:43.845Z,9.50
2019-05-05T19:36:50.150Z,9.30
2019-05-05T19:41:56.283Z,9.20
2019-05-05T19:47:13.945Z,9.10
2019-05-05T19:52:19.818Z,9.10
2019-05-05T19:57:26.061Z,9.00
2019-05-05T20:02:34.047Z,8.90
2019-05-05T20:07:40.059Z,8.80
2019-05-05T20:12:46.969Z,8.80
2019-05-05T20:17:53.944Z,8.70
2019-05-05T20:23:00.279Z,8.70
2019-05-05T20:28:06.299Z,8.70
2019-05-05T20:33:24.239Z,8.50
2019-05-05T20:38:36.194Z,8.50
2019-05-05T20:43:44.753Z,8.40
2019-05-05T20:48:50.512Z,8.30
2019-05-05T20:53:57.010Z,8.30
2019-05-05T20:59:03.537Z,8.20
2019-05-05T21:04:09.670Z,8.10
2019-05-05T21:09:15.898Z,7.90
2019-05-05T21:14:33.646Z,7.90
2019-05-05T21:19:30.087Z,7.90
2019-05-05T21:24:36.308Z,7.80
2019-05-05T21:29:42.572Z,7.80
2019-05-05T21:34:48.884Z,7.80
2019-05-05T21:39:55.328Z,7.70
2019-05-05T21:45:01.625Z,7.60
2019-05-05T21:50:10.498Z,7.50
2019-05-05T21:55:24.522Z,7.40
2019-05-05T22:00:48.596Z,7.30
2019-05-05T22:05:56.056Z,7.20
2019-05-05T22:11:03.960Z,7.10
2019-05-05T22:16:10.208Z,7.10
2019-05-05T22:21:27.536Z,7.10
2019-05-05T22:26:33.675Z,7.00
2019-05-05T22:31:40.483Z,6.90
2019-05-05T22:36:46.550Z,6.80
2019-05-05T22:41:54.306Z,6.80
2019-05-05T22:47:01.911Z,6.80
2019-05-05T22:52:08.239Z,6.70
2019-05-05T22:57:14.807Z,6.60
2019-05-05T23:02:24.457Z,6.30
2019-05-05T23:07:34.808Z,6.30
2019-05-05T23:12:40.247Z,6.30
2019-05-05T23:17:58.403Z,6.10
2019-05-05T23:23:14.602Z,6.10
2019-05-05T23:28:20.931Z,6.10
2019-05-05T23:33:27.112Z,6.10
2019-05-05T23:38:34.750Z,5.90
2019-05-05T23:43:41.042Z,5.80
2019-05-05T23:48:48.447Z,5.80
2019-05-05T23:53:55.067Z,5.70
2019-05-05T23:59:01.548Z,5.80
